Main page
METAR-TAF:

METAR-TAF

Airports :

Pointe-Noire, Congo

Pointe Noire Airport

latitude: 04-49S, longitude: 011-54E, elevation: 17 m

Current weather observation

The report was made 1 hour and 2 minutes ago, at 11:00 UTC
Wind 14 kt from the South
Temperature 29°C
Humidity 70%
Pressure 1015 hPa
Visibility 10 km or more
Few clouds at a height of 1600 ft
Scattered clouds at a height of 2600 ft

METAR: FCPP 221100Z 19014KT 9999 FEW016 SCT026 29/23 Q1015 NOSIG

Time: 13:02 (12:02 UTC)

Forecast

The report was made 1 hour and 2 minutes ago, at 11:00 UTC
Forecast valid from 22 at 12 UTC to 23 at 12 UTC
Wind 6 kt from the South
Visibility: 9000 m
Scattered clouds at a height of 1300 ft
Broken clouds at a height of 2300 ft

TAF: FCPP 221100Z 2212/2312 18006KT 9000 SCT013 BKN023

Weather observations and forecasts of more than 4000 airports (METAR and TAF reports).

The available stations are represented by yellow and red dots on the map.

Hover mouse over dot to see the name of the station.

Then click to see weather observations and forecasts.

To change the map : click on the green buttons with a black cross to zoom in, on the green button with a dash to zoom out, or on the green arrows for adjacent maps.


METAR-TAF: